Wedderburn, OR (97491)

12:52 PM PDT on August 23, 2014 (GMT -0700)
MesoWest Gold Beach OR US MFRWFO | Change Station
CLOSE
Current Station
Personal Weather Station
Location: Gold Beach, OR
Elevation: 16 ft
Nearby Weather Stations

Elev 16 ft 42.41 °N, 124.42 °W | Updated 33 minutes ago

Clear
Clear
64 °F
Feels Like 64 °F
N
21
Wind Variable Wind from NNW
Gusts 27.0 mph

Today
High -- | Low -- °F
--% Chance of Precip.
Yesterday
High -- | Low -- °F
Precip. -- in
6:33 AM 8:06 PM
Waning Crescent, 3% visible
Pressure 29.94 in
Visibility 8.0 miles
Clouds Clear
Dew Point 52 °F
Humidity 64%
Rainfall -999.00 in
Snow Depth Not available.
UV 8 out of 12
Pollen 5.30 out of 12
Air Quality Not available.
Flu Activity Not available.
METAR KBOK 231856Z AUTO VRB03KT 8SM CLR 29/13 A2994 RMK AO2 T02940127 SLP136

More Conditions Fewer Conditions

Pressure 29.94 in
Visibility 8.0 miles
Clouds Clear
Dew Point 52 °F
Humidity 64%
Rainfall -999.00 in
Snow Depth Not available.
UV 8 out of 12
Pollen 5.30 out of 12
Air Quality Not available.
Flu Activity Not available.
METAR KBOK 231856Z AUTO VRB03KT 8SM CLR 29/13 A2994 RMK AO2 T02940127 SLP136

More Conditions Fewer Conditions

10-Day Weather Forecast

Almanac

Astronomy

Aug. 23, 2014 Rise Set
Actual Time 6:33 AM PDT 8:06 PM PDT
Civil Twilight 6:03 AM PDT 8:35 PM PDT
Nautical Twilight 5:27 AM PDT 9:11 PM PDT
Astronomical Twilight 4:49 AM PDT 9:49 PM PDT
Moon 4:53 AM PDT 6:54 PM PDT
Length of Visible Light 14h 32m
Length of Day
13h 33m
Tomorrow will be 2m 40s shorter.
Waning Crescent, 3% of the Moon is Illuminated
Today
Waning Crescent
Aug 25
New
Sep 2
First Quarter
Sep 8
Full
Sep 15
Last Quarter

Today's Extremes

State Highs State Lows

Community

WunderPhotos

Upload Photos

1,746,583 photos uploaded!

WunderBlogs® & News

Nearby

Snow Depth

Station Depth Elevation
Bigelow Camp 0 in 5120 ft
Fish Lake 0 in 4665 ft
Fourmile Lake 1 in 6000 ft
Sevenmile Marsh 0 in 6200 ft
Strawberry 0 in 5760 ft

Earthquake Activity

City Distance Mag. Time & Date
No recent earthquake activity has been reported nearby.
Minimum magnitude displayed is 2.5.

Coastal Water Temperatures

Place Temperature
Port Orford, OR 50.0 °F
Crescent City, CA 60.1 °F
Charleston, OR 51.1 °F

Nearby Weather Stations